Aviation Digital Data Service (ADDS)

Output produced by METARs form (0615 UTC 21 August 2014)
found at http://aviationweather.gov/adds/metars/
 
KRME 210538Z 2106/2206 10005KT P6SM SCT007 BKN025 
     TEMPO 2106/2109 4SM -SHRA BR BKN007 OVC015 
     FM210900 11005KT 3SM BR BKN007 OVC015 
     TEMPO 2112/2115 P6SM NSW SCT007 OVC015 
     FM211500 14005KT P6SM BKN025 
     FM211800 14005KT 5SM SHRA BR BKN025 OVC040 
     FM220000 10003KT 3SM BR OVC015